createdAt,value
2018-10-09T00:04:18.617Z,38.83
2018-10-09T00:09:23.772Z,39.53
2018-10-09T00:14:27.901Z,38.93
2018-10-09T00:19:32.683Z,38.63
2018-10-09T00:24:36.850Z,36.90
2018-10-09T00:29:40.946Z,35.17
2018-10-09T00:34:45.052Z,53.10
2018-10-09T00:39:49.170Z,48.90
2018-10-09T00:44:53.221Z,35.53
2018-10-09T00:49:57.260Z,50.97
2018-10-09T00:55:01.398Z,35.67
2018-10-09T01:00:06.579Z,34.80
2018-10-09T01:05:10.725Z,35.60
2018-10-09T01:10:14.884Z,37.00
2018-10-09T01:15:18.973Z,35.27
2018-10-09T01:20:31.272Z,36.17
2018-10-09T01:25:36.308Z,32.17
2018-10-09T01:30:40.581Z,32.80
2018-10-09T01:35:44.771Z,32.00
2018-10-09T01:40:48.984Z,51.87
2018-10-09T01:45:53.237Z,34.50
2018-10-09T01:50:57.291Z,32.13
2018-10-09T01:56:01.345Z,47.57
2018-10-09T02:01:05.355Z,46.83
2018-10-09T02:06:10.100Z,34.50
2018-10-09T02:11:14.235Z,32.43
2018-10-09T02:16:18.447Z,31.47
2018-10-09T02:21:22.174Z,33.77
2018-10-09T02:26:26.210Z,33.40
2018-10-09T02:31:30.294Z,34.17
2018-10-09T02:36:34.405Z,33.97
2018-10-09T02:41:38.574Z,33.37
2018-10-09T02:46:42.738Z,33.27
2018-10-09T02:51:46.816Z,32.90
2018-10-09T02:56:50.977Z,49.17
2018-10-09T03:01:55.186Z,48.25
2018-10-09T03:06:59.396Z,47.67
2018-10-09T03:12:03.919Z,46.60
2018-10-09T03:17:08.703Z,45.15
2018-10-09T03:22:12.772Z,48.28
2018-10-09T03:27:16.826Z,46.58
2018-10-09T03:32:20.977Z,50.05
2018-10-09T03:37:25.189Z,46.50
2018-10-09T03:42:29.365Z,46.50
2018-10-09T03:47:33.662Z,44.45
2018-10-09T03:52:37.923Z,45.38
2018-10-09T03:57:42.072Z,45.10
2018-10-09T04:02:46.193Z,44.27
2018-10-09T04:07:51.167Z,47.10
2018-10-09T04:12:56.016Z,49.08
2018-10-09T04:18:01.304Z,50.98
2018-10-09T04:23:06.157Z,55.63
2018-10-09T04:28:11.431Z,62.62
2018-10-09T04:33:15.596Z,68.00
2018-10-09T04:38:20.324Z,55.88
2018-10-09T04:43:24.511Z,40.67
2018-10-09T04:48:28.768Z,41.13
2018-10-09T04:53:32.877Z,40.93
2018-10-09T04:58:36.987Z,44.30
2018-10-09T05:03:41.051Z,49.10
2018-10-09T05:08:45.056Z,50.80
2018-10-09T05:13:49.086Z,56.00
2018-10-09T05:18:53.115Z,60.90
2018-10-09T05:23:57.848Z,57.90
2018-10-09T05:29:01.650Z,54.60
2018-10-09T05:34:05.638Z,55.70
2018-10-09T05:39:09.751Z,36.07
2018-10-09T05:44:13.810Z,55.27
2018-10-09T05:49:17.767Z,47.77
2018-10-09T05:54:21.813Z,42.50
2018-10-09T05:59:25.895Z,46.30
2018-10-09T06:04:29.970Z,47.08
2018-10-09T06:09:34.018Z,46.37
2018-10-09T06:14:38.078Z,32.27
2018-10-09T06:19:42.264Z,28.83
2018-10-09T06:24:46.309Z,30.07
2018-10-09T06:29:50.290Z,33.83
2018-10-09T06:34:54.347Z,30.50
2018-10-09T06:39:58.307Z,31.83
2018-10-09T06:45:02.403Z,33.57
2018-10-09T06:50:06.780Z,30.70
2018-10-09T06:55:10.795Z,30.57
2018-10-09T07:00:14.916Z,32.27
2018-10-09T07:05:18.938Z,44.10
2018-10-09T07:10:23.079Z,38.87
2018-10-09T07:15:27.153Z,57.15
2018-10-09T07:20:31.257Z,46.15
2018-10-09T07:25:35.322Z,42.27
2018-10-09T07:30:39.426Z,45.05
2018-10-09T07:35:43.456Z,31.30
2018-10-09T07:40:47.492Z,38.10
2018-10-09T07:45:51.530Z,40.30
2018-10-09T07:50:55.626Z,41.13
2018-10-09T07:55:59.692Z,39.23
2018-10-09T08:01:03.728Z,26.83
2018-10-09T08:06:07.868Z,41.30
2018-10-09T08:11:11.978Z,50.20
2018-10-09T08:16:16.158Z,35.57
2018-10-09T08:21:20.277Z,45.20
2018-10-09T08:26:24.327Z,42.27
2018-10-09T08:31:28.433Z,32.47
2018-10-09T08:36:32.486Z,33.73
2018-10-09T08:41:36.542Z,32.80
2018-10-09T08:46:40.550Z,34.00
2018-10-09T08:51:44.681Z,31.80
2018-10-09T08:56:48.746Z,33.90
2018-10-09T09:01:52.746Z,31.10
2018-10-09T09:06:56.781Z,29.83
2018-10-09T09:12:00.816Z,35.60
2018-10-09T09:17:05.878Z,35.93
2018-10-09T09:22:09.997Z,33.30
2018-10-09T09:27:14.070Z,31.50
2018-10-09T09:32:18.112Z,34.17
2018-10-09T09:37:22.177Z,32.93
2018-10-09T09:42:26.213Z,36.53
2018-10-09T09:47:30.291Z,32.27
2018-10-09T09:52:34.298Z,31.17
2018-10-09T09:57:38.309Z,32.57
2018-10-09T10:02:42.405Z,35.20
2018-10-09T10:07:46.428Z,33.23
2018-10-09T10:12:50.509Z,33.73
2018-10-09T10:17:54.586Z,33.83
2018-10-09T10:22:58.697Z,32.57
2018-10-09T10:28:02.711Z,34.10
2018-10-09T10:33:06.897Z,33.60
2018-10-09T10:38:10.949Z,32.77
2018-10-09T10:43:15.047Z,32.43
2018-10-09T10:48:19.116Z,33.23
2018-10-09T10:53:23.169Z,33.03
2018-10-09T10:58:27.311Z,32.70
2018-10-09T11:03:31.392Z,30.67
2018-10-09T11:08:35.742Z,29.67
2018-10-09T11:13:39.901Z,30.13
2018-10-09T11:18:43.999Z,29.27
2018-10-09T11:23:48.110Z,28.80
2018-10-09T11:28:52.155Z,28.97
2018-10-09T11:39:31.137Z,26.73
2018-10-09T11:44:35.197Z,29.60
2018-10-09T11:49:39.357Z,27.37
2018-10-09T11:54:43.522Z,26.40
2018-10-09T11:59:47.664Z,25.37
2018-10-09T12:04:51.732Z,26.37
2018-10-09T12:09:55.879Z,25.03
2018-10-09T12:14:59.930Z,22.30
2018-10-09T12:20:04.268Z,23.27
2018-10-09T12:25:09.242Z,21.70
2018-10-09T12:30:14.053Z,24.37
2018-10-09T12:35:18.101Z,22.07
2018-10-09T12:40:22.238Z,22.47
2018-10-09T12:45:26.320Z,18.95
2018-10-09T12:50:30.424Z,17.82
2018-10-09T12:55:34.471Z,17.98
2018-10-09T13:00:38.611Z,19.37
2018-10-09T13:05:42.780Z,17.60
2018-10-09T13:10:46.852Z,16.23
2018-10-09T13:15:50.996Z,19.32
2018-10-09T13:20:55.134Z,18.20
2018-10-09T13:25:59.186Z,20.12
2018-10-09T13:31:03.302Z,21.47
2018-10-09T13:36:07.583Z,19.70
2018-10-09T13:41:11.714Z,23.60
2018-10-09T13:46:15.832Z,22.87
2018-10-09T13:51:19.924Z,21.60
2018-10-09T13:56:23.894Z,24.60
2018-10-09T14:01:27.917Z,25.63
2018-10-09T14:06:32.011Z,23.97
2018-10-09T14:11:36.206Z,21.47
2018-10-09T14:16:40.335Z,21.40
2018-10-09T14:21:44.405Z,24.10
2018-10-09T14:26:48.443Z,22.70
2018-10-09T14:31:52.463Z,23.10
2018-10-09T14:36:56.623Z,20.40
2018-10-09T14:42:00.668Z,18.93
2018-10-09T14:47:04.813Z,19.57
2018-10-09T14:52:08.893Z,17.42
2018-10-09T14:57:12.950Z,18.85
2018-10-09T15:02:17.122Z,18.87
2018-10-09T15:07:21.263Z,18.60
2018-10-09T15:12:25.432Z,19.45
2018-10-09T15:17:30.194Z,18.40
2018-10-09T15:22:34.266Z,19.37
2018-10-09T15:27:38.459Z,22.10
2018-10-09T15:32:42.533Z,20.53
2018-10-09T15:37:46.862Z,18.80
2018-10-09T15:42:50.942Z,19.67
2018-10-09T15:47:55.086Z,20.03
2018-10-09T15:52:59.915Z,21.23
2018-10-09T15:58:04.050Z,22.23
2018-10-09T16:03:08.805Z,21.93
2018-10-09T16:08:19.091Z,21.87
2018-10-09T16:13:23.239Z,21.10
2018-10-09T16:18:27.339Z,21.30
2018-10-09T16:23:31.871Z,22.43
2018-10-09T16:28:35.949Z,23.43
2018-10-09T16:33:40.129Z,23.53
2018-10-09T16:38:44.239Z,22.20
2018-10-09T16:43:48.432Z,24.73
2018-10-09T16:48:52.579Z,25.17
2018-10-09T16:53:56.731Z,25.13
2018-10-09T16:59:00.903Z,24.90
2018-10-09T17:04:05.104Z,24.93
2018-10-09T17:09:10.047Z,25.27
2018-10-09T17:14:14.285Z,25.67
2018-10-09T17:19:18.378Z,25.80
2018-10-09T17:24:22.578Z,25.43
2018-10-09T17:29:26.328Z,26.70
2018-10-09T17:34:30.123Z,28.30
2018-10-09T17:39:34.086Z,25.57
2018-10-09T17:44:38.613Z,26.33
2018-10-09T17:49:42.405Z,25.43
2018-10-09T17:54:46.451Z,25.33
2018-10-09T17:59:50.620Z,33.93
2018-10-09T18:04:54.803Z,31.17
2018-10-09T18:09:58.966Z,30.40
2018-10-09T18:15:03.239Z,28.47
2018-10-09T18:20:07.518Z,27.90
2018-10-09T18:25:12.005Z,28.50
2018-10-09T18:30:16.316Z,27.47
2018-10-09T18:35:20.655Z,27.10
2018-10-09T18:40:24.889Z,27.10
2018-10-09T18:45:29.301Z,30.10
2018-10-09T18:50:33.559Z,40.30
2018-10-09T18:55:37.973Z,42.17
2018-10-09T19:00:42.486Z,41.73
2018-10-09T19:05:47.033Z,31.30
2018-10-09T19:10:51.437Z,30.53
2018-10-09T19:15:55.787Z,31.23
2018-10-09T19:21:00.176Z,33.20
2018-10-09T19:26:04.500Z,31.40
2018-10-09T19:31:08.838Z,30.70
2018-10-09T19:36:15.581Z,30.83
2018-10-09T19:41:20.287Z,29.77
2018-10-09T19:46:24.716Z,30.67
2018-10-09T19:51:29.215Z,29.83
2018-10-09T19:56:33.426Z,29.60
2018-10-09T20:01:37.614Z,31.03
2018-10-09T20:06:41.814Z,31.90
2018-10-09T20:11:46.163Z,29.67
2018-10-09T20:16:49.981Z,29.17
2018-10-09T20:21:54.024Z,28.93
2018-10-09T20:26:58.742Z,26.57
2018-10-09T20:32:02.896Z,26.23
2018-10-09T20:37:06.581Z,37.37
2018-10-09T20:42:10.911Z,35.68
2018-10-09T20:47:22.870Z,34.98
2018-10-09T20:52:27.018Z,36.50
2018-10-09T20:57:31.329Z,36.17
2018-10-09T21:02:36.171Z,35.70
2018-10-09T21:07:40.669Z,33.33
2018-10-09T21:12:45.600Z,35.55
2018-10-09T21:17:50.353Z,34.83
2018-10-09T21:22:55.478Z,33.63
2018-10-09T21:28:01.832Z,33.13
2018-10-09T21:33:06.958Z,32.97
2018-10-09T21:38:11.685Z,34.27
2018-10-09T21:43:16.275Z,34.07
2018-10-09T21:48:20.873Z,34.00
2018-10-09T21:53:25.407Z,36.27
2018-10-09T21:58:29.544Z,35.35
2018-10-09T22:03:33.755Z,36.05
2018-10-09T22:08:38.071Z,35.90
2018-10-09T22:13:42.100Z,36.55
2018-10-09T22:18:46.150Z,36.65
2018-10-09T22:23:50.198Z,36.33
2018-10-09T22:28:54.937Z,35.60
2018-10-09T22:33:59.294Z,37.95
2018-10-09T22:39:04.907Z,38.23
2018-10-09T22:44:09.067Z,39.05
2018-10-09T22:49:13.021Z,37.70
2018-10-09T22:54:17.077Z,38.40
2018-10-09T22:59:21.221Z,39.90
2018-10-09T23:04:25.273Z,38.05
2018-10-09T23:09:29.318Z,38.10
2018-10-09T23:14:33.379Z,37.88
2018-10-09T23:19:37.433Z,39.05
2018-10-09T23:24:41.963Z,38.40
2018-10-09T23:29:46.016Z,37.73
2018-10-09T23:34:50.250Z,38.30
2018-10-09T23:39:54.286Z,36.85
2018-10-09T23:44:58.032Z,38.60
2018-10-09T23:50:01.720Z,40.40
2018-10-09T23:55:06.824Z,39.20
